sensor_id;sensor_type;location;lat;lon;timestamp;temperature;humidity
7814;DHT22;3952;48.364;16.022;2024-03-22T00:01:54;11.60;99.90
7814;DHT22;3952;48.364;16.022;2024-03-22T00:04:20;11.60;99.90
7814;DHT22;3952;48.364;16.022;2024-03-22T00:06:48;11.60;99.90
7814;DHT22;3952;48.364;16.022;2024-03-22T00:09:16;11.50;99.90
7814;DHT22;3952;48.364;16.022;2024-03-22T00:11:44;11.60;99.90
7814;DHT22;3952;48.364;16.022;2024-03-22T00:14:11;11.60;99.90
7814;DHT22;3952;48.364;16.022;2024-03-22T00:16:39;11.60;99.90
7814;DHT22;3952;48.364;16.022;2024-03-22T00:19:07;11.60;99.90
7814;DHT22;3952;48.364;16.022;2024-03-22T00:21:34;11.60;99.90
7814;DHT22;3952;48.364;16.022;2024-03-22T00:24:00;11.60;99.90
7814;DHT22;3952;48.364;16.022;2024-03-22T00:26:28;11.60;99.90
7814;DHT22;3952;48.364;16.022;2024-03-22T00:28:54;11.60;99.90
7814;DHT22;3952;48.364;16.022;2024-03-22T00:31:24;11.50;99.90
7814;DHT22;3952;48.364;16.022;2024-03-22T00:33:50;11.70;99.90
7814;DHT22;3952;48.364;16.022;2024-03-22T00:36:19;11.50;99.90
7814;DHT22;3952;48.364;16.022;2024-03-22T00:38:46;11.50;99.90
7814;DHT22;3952;48.364;16.022;2024-03-22T00:41:13;11.60;99.90
7814;DHT22;3952;48.364;16.022;2024-03-22T00:43:39;11.50;99.90
7814;DHT22;3952;48.364;16.022;2024-03-22T00:46:07;11.60;99.90
7814;DHT22;3952;48.364;16.022;2024-03-22T00:48:34;11.60;99.90
7814;DHT22;3952;48.364;16.022;2024-03-22T00:51:01;11.60;99.90
7814;DHT22;3952;48.364;16.022;2024-03-22T00:53:30;11.60;99.90
7814;DHT22;3952;48.364;16.022;2024-03-22T00:55:57;11.60;99.90
7814;DHT22;3952;48.364;16.022;2024-03-22T00:58:26;11.60;99.90
7814;DHT22;3952;48.364;16.022;2024-03-22T01:00:52;11.60;99.90
7814;DHT22;3952;48.364;16.022;2024-03-22T01:03:20;11.60;99.90
7814;DHT22;3952;48.364;16.022;2024-03-22T01:05:46;11.60;99.90
7814;DHT22;3952;48.364;16.022;2024-03-22T01:08:13;11.60;99.90
7814;DHT22;3952;48.364;16.022;2024-03-22T01:10:42;11.60;99.90
7814;DHT22;3952;48.364;16.022;2024-03-22T01:13:09;11.60;99.90
7814;DHT22;3952;48.364;16.022;2024-03-22T01:15:35;11.60;99.90
7814;DHT22;3952;48.364;16.022;2024-03-22T01:18:03;11.60;99.90
7814;DHT22;3952;48.364;16.022;2024-03-22T01:20:29;11.60;99.90
7814;DHT22;3952;48.364;16.022;2024-03-22T01:22:56;11.60;99.90
7814;DHT22;3952;48.364;16.022;2024-03-22T01:25:23;11.60;99.90
7814;DHT22;3952;48.364;16.022;2024-03-22T01:27:51;11.60;99.90
7814;DHT22;3952;48.364;16.022;2024-03-22T01:30:18;11.70;99.90
7814;DHT22;3952;48.364;16.022;2024-03-22T01:32:45;11.70;99.90
7814;DHT22;3952;48.364;16.022;2024-03-22T01:35:11;11.60;99.90
7814;DHT22;3952;48.364;16.022;2024-03-22T01:37:38;11.70;99.90
7814;DHT22;3952;48.364;16.022;2024-03-22T01:40:07;11.70;99.90
7814;DHT22;3952;48.364;16.022;2024-03-22T01:42:35;11.60;99.90
7814;DHT22;3952;48.364;16.022;2024-03-22T01:45:03;11.60;99.90
7814;DHT22;3952;48.364;16.022;2024-03-22T01:47:30;11.60;99.90
7814;DHT22;3952;48.364;16.022;2024-03-22T01:49:57;11.60;99.90
7814;DHT22;3952;48.364;16.022;2024-03-22T01:52:24;11.60;99.90
7814;DHT22;3952;48.364;16.022;2024-03-22T01:54:51;11.60;99.90
7814;DHT22;3952;48.364;16.022;2024-03-22T01:57:18;11.60;99.90
7814;DHT22;3952;48.364;16.022;2024-03-22T01:59:46;11.60;99.90
7814;DHT22;3952;48.364;16.022;2024-03-22T02:02:16;11.60;99.90
7814;DHT22;3952;48.364;16.022;2024-03-22T02:04:42;11.60;99.90
7814;DHT22;3952;48.364;16.022;2024-03-22T02:07:09;11.60;99.90
7814;DHT22;3952;48.364;16.022;2024-03-22T02:09:36;11.60;99.90
7814;DHT22;3952;48.364;16.022;2024-03-22T02:12:03;11.60;99.90
7814;DHT22;3952;48.364;16.022;2024-03-22T02:14:30;11.60;99.90
7814;DHT22;3952;48.364;16.022;2024-03-22T02:16:57;11.60;99.90
7814;DHT22;3952;48.364;16.022;2024-03-22T02:19:24;11.60;99.90
7814;DHT22;3952;48.364;16.022;2024-03-22T02:21:52;11.60;99.90
7814;DHT22;3952;48.364;16.022;2024-03-22T02:24:19;11.60;99.90
7814;DHT22;3952;48.364;16.022;2024-03-22T02:26:47;11.50;99.90
7814;DHT22;3952;48.364;16.022;2024-03-22T02:29:13;11.50;99.90
7814;DHT22;3952;48.364;16.022;2024-03-22T02:31:40;11.50;99.90
7814;DHT22;3952;48.364;16.022;2024-03-22T02:34:06;11.50;99.90
7814;DHT22;3952;48.364;16.022;2024-03-22T02:36:34;11.50;99.90
7814;DHT22;3952;48.364;16.022;2024-03-22T02:39:00;11.50;99.90
7814;DHT22;3952;48.364;16.022;2024-03-22T02:41:29;11.50;99.90
7814;DHT22;3952;48.364;16.022;2024-03-22T02:43:55;11.50;99.90
7814;DHT22;3952;48.364;16.022;2024-03-22T02:46:22;11.50;99.90
7814;DHT22;3952;48.364;16.022;2024-03-22T02:48:48;11.50;99.90
7814;DHT22;3952;48.364;16.022;2024-03-22T02:51:16;11.50;99.90
7814;DHT22;3952;48.364;16.022;2024-03-22T02:53:42;11.50;99.90
7814;DHT22;3952;48.364;16.022;2024-03-22T02:56:09;11.50;99.90
7814;DHT22;3952;48.364;16.022;2024-03-22T02:58:37;11.50;99.90
7814;DHT22;3952;48.364;16.022;2024-03-22T03:01:05;11.50;99.90
7814;DHT22;3952;48.364;16.022;2024-03-22T03:03:31;11.50;99.90
7814;DHT22;3952;48.364;16.022;2024-03-22T03:05:59;11.50;99.90
7814;DHT22;3952;48.364;16.022;2024-03-22T03:08:25;11.40;99.90
7814;DHT22;3952;48.364;16.022;2024-03-22T03:10:52;11.40;99.90
7814;DHT22;3952;48.364;16.022;2024-03-22T03:13:18;11.40;99.90
7814;DHT22;3952;48.364;16.022;2024-03-22T03:15:47;11.40;99.90
7814;DHT22;3952;48.364;16.022;2024-03-22T03:18:13;11.40;99.90
7814;DHT22;3952;48.364;16.022;2024-03-22T03:20:40;11.30;99.90
7814;DHT22;3952;48.364;16.022;2024-03-22T03:23:07;11.30;99.90
7814;DHT22;3952;48.364;16.022;2024-03-22T03:25:34;11.30;99.90
7814;DHT22;3952;48.364;16.022;2024-03-22T03:28:00;11.30;99.90
7814;DHT22;3952;48.364;16.022;2024-03-22T03:30:28;11.30;99.90
7814;DHT22;3952;48.364;16.022;2024-03-22T03:32:55;11.30;99.90
7814;DHT22;3952;48.364;16.022;2024-03-22T03:35:22;11.30;99.90
7814;DHT22;3952;48.364;16.022;2024-03-22T03:37:49;11.20;99.90
7814;DHT22;3952;48.364;16.022;2024-03-22T03:40:16;11.30;99.90
7814;DHT22;3952;48.364;16.022;2024-03-22T03:42:43;11.20;99.90
7814;DHT22;3952;48.364;16.022;2024-03-22T03:45:10;11.20;99.90
7814;DHT22;3952;48.364;16.022;2024-03-22T03:47:37;11.20;99.90
7814;DHT22;3952;48.364;16.022;2024-03-22T03:50:06;11.20;99.90
7814;DHT22;3952;48.364;16.022;2024-03-22T03:52:33;11.20;99.90
7814;DHT22;3952;48.364;16.022;2024-03-22T03:55:00;11.20;99.90
7814;DHT22;3952;48.364;16.022;2024-03-22T03:57:26;11.20;99.90
7814;DHT22;3952;48.364;16.022;2024-03-22T03:59:53;11.20;99.90
7814;DHT22;3952;48.364;16.022;2024-03-22T04:02:19;11.20;99.90
7814;DHT22;3952;48.364;16.022;2024-03-22T04:04:47;11.20;99.90
7814;DHT22;3952;48.364;16.022;2024-03-22T04:07:14;11.20;99.90
7814;DHT22;3952;48.364;16.022;2024-03-22T04:09:42;11.20;99.90
7814;DHT22;3952;48.364;16.022;2024-03-22T04:12:08;11.20;99.90
7814;DHT22;3952;48.364;16.022;2024-03-22T04:14:35;11.20;99.90
7814;DHT22;3952;48.364;16.022;2024-03-22T04:17:01;11.20;99.90
7814;DHT22;3952;48.364;16.022;2024-03-22T04:19:29;11.10;99.90
7814;DHT22;3952;48.364;16.022;2024-03-22T04:21:55;11.20;99.90
7814;DHT22;3952;48.364;16.022;2024-03-22T04:24:24;11.20;99.90
7814;DHT22;3952;48.364;16.022;2024-03-22T04:26:50;11.10;99.90
7814;DHT22;3952;48.364;16.022;2024-03-22T04:29:17;11.10;99.90
7814;DHT22;3952;48.364;16.022;2024-03-22T04:31:43;11.10;99.90
7814;DHT22;3952;48.364;16.022;2024-03-22T04:34:11;11.00;99.90
7814;DHT22;3952;48.364;16.022;2024-03-22T04:36:37;11.00;99.90
7814;DHT22;3952;48.364;16.022;2024-03-22T04:39:04;10.90;99.90
7814;DHT22;3952;48.364;16.022;2024-03-22T04:41:33;10.90;99.90
7814;DHT22;3952;48.364;16.022;2024-03-22T04:44:01;10.90;99.90
7814;DHT22;3952;48.364;16.022;2024-03-22T04:46:28;10.80;99.90
7814;DHT22;3952;48.364;16.022;2024-03-22T04:48:54;10.80;99.90
7814;DHT22;3952;48.364;16.022;2024-03-22T04:51:21;10.70;99.90
7814;DHT22;3952;48.364;16.022;2024-03-22T04:53:48;10.70;99.90
7814;DHT22;3952;48.364;16.022;2024-03-22T04:56:15;10.70;99.90
7814;DHT22;3952;48.364;16.022;2024-03-22T04:58:43;10.60;99.90
7814;DHT22;3952;48.364;16.022;2024-03-22T05:01:10;10.60;99.90
7814;DHT22;3952;48.364;16.022;2024-03-22T05:03:38;10.50;99.90
7814;DHT22;3952;48.364;16.022;2024-03-22T05:06:07;10.50;99.90
7814;DHT22;3952;48.364;16.022;2024-03-22T05:08:33;10.50;99.90
7814;DHT22;3952;48.364;16.022;2024-03-22T05:11:00;10.50;99.90
7814;DHT22;3952;48.364;16.022;2024-03-22T05:13:26;10.40;99.90
7814;DHT22;3952;48.364;16.022;2024-03-22T05:15:55;10.40;99.90
7814;DHT22;3952;48.364;16.022;2024-03-22T05:18:21;10.40;99.90
7814;DHT22;3952;48.364;16.022;2024-03-22T05:20:49;10.30;99.90
7814;DHT22;3952;48.364;16.022;2024-03-22T05:23:15;10.40;99.90
7814;DHT22;3952;48.364;16.022;2024-03-22T05:25:43;11.70;99.90
7814;DHT22;3952;48.364;16.022;2024-03-22T05:28:10;10.30;99.90
7814;DHT22;3952;48.364;16.022;2024-03-22T05:30:37;10.30;99.90
7814;DHT22;3952;48.364;16.022;2024-03-22T05:33:05;10.20;99.90
7814;DHT22;3952;48.364;16.022;2024-03-22T05:35:32;10.20;99.90
7814;DHT22;3952;48.364;16.022;2024-03-22T05:37:58;10.20;99.90
7814;DHT22;3952;48.364;16.022;2024-03-22T05:40:26;10.20;99.90
7814;DHT22;3952;48.364;16.022;2024-03-22T05:42:52;10.20;99.90
7814;DHT22;3952;48.364;16.022;2024-03-22T05:45:19;9.30;99.90
7814;DHT22;3952;48.364;16.022;2024-03-22T05:47:45;10.20;99.90
7814;DHT22;3952;48.364;16.022;2024-03-22T05:50:14;10.20;99.90
7814;DHT22;3952;48.364;16.022;2024-03-22T05:52:40;10.10;99.90
7814;DHT22;3952;48.364;16.022;2024-03-22T05:55:08;10.20;99.90
7814;DHT22;3952;48.364;16.022;2024-03-22T05:57:34;10.20;99.90
7814;DHT22;3952;48.364;16.022;2024-03-22T06:00:01;10.20;99.90
7814;DHT22;3952;48.364;16.022;2024-03-22T06:02:28;10.20;99.90
7814;DHT22;3952;48.364;16.022;2024-03-22T06:04:55;10.20;99.90
7814;DHT22;3952;48.364;16.022;2024-03-22T06:07:23;10.10;99.90
7814;DHT22;3952;48.364;16.022;2024-03-22T06:09:51;10.10;99.90
7814;DHT22;3952;48.364;16.022;2024-03-22T06:12:18;10.10;99.90
7814;DHT22;3952;48.364;16.022;2024-03-22T06:14:47;10.10;99.90
7814;DHT22;3952;48.364;16.022;2024-03-22T06:17:14;10.10;99.90
7814;DHT22;3952;48.364;16.022;2024-03-22T06:19:42;10.10;99.90
7814;DHT22;3952;48.364;16.022;2024-03-22T06:22:08;10.10;99.90
7814;DHT22;3952;48.364;16.022;2024-03-22T06:24:37;10.10;99.90
7814;DHT22;3952;48.364;16.022;2024-03-22T06:27:03;10.20;99.90
7814;DHT22;3952;48.364;16.022;2024-03-22T06:29:30;10.20;99.90
7814;DHT22;3952;48.364;16.022;2024-03-22T06:31:56;10.20;99.90
7814;DHT22;3952;48.364;16.022;2024-03-22T06:34:24;10.30;99.90
7814;DHT22;3952;48.364;16.022;2024-03-22T06:36:50;10.30;99.90
7814;DHT22;3952;48.364;16.022;2024-03-22T06:39:18;10.30;99.90
7814;DHT22;3952;48.364;16.022;2024-03-22T06:41:45;10.40;99.90
7814;DHT22;3952;48.364;16.022;2024-03-22T06:44:13;10.50;99.90
7814;DHT22;3952;48.364;16.022;2024-03-22T06:46:40;10.50;99.90
7814;DHT22;3952;48.364;16.022;2024-03-22T06:49:07;10.60;99.90
7814;DHT22;3952;48.364;16.022;2024-03-22T06:51:33;10.60;99.90
7814;DHT22;3952;48.364;16.022;2024-03-22T06:54:00;10.60;99.90
7814;DHT22;3952;48.364;16.022;2024-03-22T06:56:27;10.70;99.90
7814;DHT22;3952;48.364;16.022;2024-03-22T06:58:55;10.80;99.90
7814;DHT22;3952;48.364;16.022;2024-03-22T07:01:22;10.90;99.90
7814;DHT22;3952;48.364;16.022;2024-03-22T07:03:49;11.80;99.90
7814;DHT22;3952;48.364;16.022;2024-03-22T07:06:15;11.20;99.90
7814;DHT22;3952;48.364;16.022;2024-03-22T07:08:42;11.30;99.90
7814;DHT22;3952;48.364;16.022;2024-03-22T07:11:09;11.40;99.90
7814;DHT22;3952;48.364;16.022;2024-03-22T07:13:36;11.50;99.90
7814;DHT22;3952;48.364;16.022;2024-03-22T07:16:05;11.70;99.90
7814;DHT22;3952;48.364;16.022;2024-03-22T07:18:32;11.80;99.90
7814;DHT22;3952;48.364;16.022;2024-03-22T07:20:58;11.90;99.90
7814;DHT22;3952;48.364;16.022;2024-03-22T07:23:27;12.00;99.90
7814;DHT22;3952;48.364;16.022;2024-03-22T07:25:53;12.00;99.90
7814;DHT22;3952;48.364;16.022;2024-03-22T07:28:20;12.20;99.90
7814;DHT22;3952;48.364;16.022;2024-03-22T07:30:47;12.30;99.90
7814;DHT22;3952;48.364;16.022;2024-03-22T07:33:16;12.50;99.90
7814;DHT22;3952;48.364;16.022;2024-03-22T07:35:44;12.50;99.90
7814;DHT22;3952;48.364;16.022;2024-03-22T07:38:10;12.60;99.90
7814;DHT22;3952;48.364;16.022;2024-03-22T07:40:37;12.60;99.90
7814;DHT22;3952;48.364;16.022;2024-03-22T07:43:04;12.60;99.90
7814;DHT22;3952;48.364;16.022;2024-03-22T07:45:33;12.60;99.90
7814;DHT22;3952;48.364;16.022;2024-03-22T07:48:00;12.60;99.90
7814;DHT22;3952;48.364;16.022;2024-03-22T07:50:28;12.60;99.90
7814;DHT22;3952;48.364;16.022;2024-03-22T07:52:55;12.60;99.90
7814;DHT22;3952;48.364;16.022;2024-03-22T07:55:22;12.60;99.90
7814;DHT22;3952;48.364;16.022;2024-03-22T07:57:48;12.60;99.90
7814;DHT22;3952;48.364;16.022;2024-03-22T08:00:16;12.60;99.90
7814;DHT22;3952;48.364;16.022;2024-03-22T08:02:43;12.70;99.90
7814;DHT22;3952;48.364;16.022;2024-03-22T08:05:10;12.60;99.90
7814;DHT22;3952;48.364;16.022;2024-03-22T08:07:38;12.70;99.90
7814;DHT22;3952;48.364;16.022;2024-03-22T08:10:05;12.70;99.90
7814;DHT22;3952;48.364;16.022;2024-03-22T08:12:32;12.80;99.90
7814;DHT22;3952;48.364;16.022;2024-03-22T08:14:59;13.00;99.90
7814;DHT22;3952;48.364;16.022;2024-03-22T08:17:25;13.10;99.90
7814;DHT22;3952;48.364;16.022;2024-03-22T08:19:53;13.30;99.90
7814;DHT22;3952;48.364;16.022;2024-03-22T08:22:19;13.50;99.90
7814;DHT22;3952;48.364;16.022;2024-03-22T08:24:48;13.60;99.90
7814;DHT22;3952;48.364;16.022;2024-03-22T08:27:14;13.70;99.90
7814;DHT22;3952;48.364;16.022;2024-03-22T08:29:41;13.70;99.90
7814;DHT22;3952;48.364;16.022;2024-03-22T08:32:08;13.70;99.90
7814;DHT22;3952;48.364;16.022;2024-03-22T08:34:35;13.80;99.90
7814;DHT22;3952;48.364;16.022;2024-03-22T08:37:01;13.80;99.90
7814;DHT22;3952;48.364;16.022;2024-03-22T08:39:29;13.80;99.90
7814;DHT22;3952;48.364;16.022;2024-03-22T08:41:57;13.80;99.90
7814;DHT22;3952;48.364;16.022;2024-03-22T08:44:24;13.80;99.90
7814;DHT22;3952;48.364;16.022;2024-03-22T08:46:51;13.80;99.90
7814;DHT22;3952;48.364;16.022;2024-03-22T08:49:18;13.90;99.90
7814;DHT22;3952;48.364;16.022;2024-03-22T08:51:45;13.90;99.90
7814;DHT22;3952;48.364;16.022;2024-03-22T08:54:14;14.10;99.90
7814;DHT22;3952;48.364;16.022;2024-03-22T08:56:40;14.20;99.90
7814;DHT22;3952;48.364;16.022;2024-03-22T08:59:09;14.30;99.90
7814;DHT22;3952;48.364;16.022;2024-03-22T09:01:36;14.50;99.90
7814;DHT22;3952;48.364;16.022;2024-03-22T09:04:03;14.60;99.90
7814;DHT22;3952;48.364;16.022;2024-03-22T09:06:31;14.80;99.90
7814;DHT22;3952;48.364;16.022;2024-03-22T09:08:58;15.00;99.90
7814;DHT22;3952;48.364;16.022;2024-03-22T09:11:25;15.10;99.90
7814;DHT22;3952;48.364;16.022;2024-03-22T09:13:53;15.30;99.90
7814;DHT22;3952;48.364;16.022;2024-03-22T09:16:21;15.40;99.90
7814;DHT22;3952;48.364;16.022;2024-03-22T09:18:48;15.50;99.90
7814;DHT22;3952;48.364;16.022;2024-03-22T09:21:15;15.60;99.90
7814;DHT22;3952;48.364;16.022;2024-03-22T09:23:42;15.70;99.90
7814;DHT22;3952;48.364;16.022;2024-03-22T09:26:08;15.70;99.90
7814;DHT22;3952;48.364;16.022;2024-03-22T09:28:36;15.80;99.90
7814;DHT22;3952;48.364;16.022;2024-03-22T09:31:05;15.90;99.90
7814;DHT22;3952;48.364;16.022;2024-03-22T09:33:34;15.90;99.90
7814;DHT22;3952;48.364;16.022;2024-03-22T09:36:01;15.90;99.90
7814;DHT22;3952;48.364;16.022;2024-03-22T09:38:28;16.00;99.90
7814;DHT22;3952;48.364;16.022;2024-03-22T09:40:54;16.10;99.90
7814;DHT22;3952;48.364;16.022;2024-03-22T09:43:22;16.10;99.90
7814;DHT22;3952;48.364;16.022;2024-03-22T09:45:49;16.20;99.90
7814;DHT22;3952;48.364;16.022;2024-03-22T09:48:17;16.20;99.90
7814;DHT22;3952;48.364;16.022;2024-03-22T09:50:46;16.20;99.90
7814;DHT22;3952;48.364;16.022;2024-03-22T09:53:17;16.30;99.90
7814;DHT22;3952;48.364;16.022;2024-03-22T09:55:45;16.30;99.90
7814;DHT22;3952;48.364;16.022;2024-03-22T09:58:12;16.30;99.90
7814;DHT22;3952;48.364;16.022;2024-03-22T10:00:38;16.70;99.90
7814;DHT22;3952;48.364;16.022;2024-03-22T10:03:06;16.30;99.90
7814;DHT22;3952;48.364;16.022;2024-03-22T10:05:34;16.40;99.90
7814;DHT22;3952;48.364;16.022;2024-03-22T10:08:03;16.50;99.90
7814;DHT22;3952;48.364;16.022;2024-03-22T10:10:31;16.70;99.90
7814;DHT22;3952;48.364;16.022;2024-03-22T10:13:00;16.80;99.90
7814;DHT22;3952;48.364;16.022;2024-03-22T10:15:27;16.80;99.90
7814;DHT22;3952;48.364;16.022;2024-03-22T10:17:57;16.90;99.90
7814;DHT22;3952;48.364;16.022;2024-03-22T10:20:24;17.00;99.90
7814;DHT22;3952;48.364;16.022;2024-03-22T10:22:56;17.10;99.90
7814;DHT22;3952;48.364;16.022;2024-03-22T10:25:25;17.20;99.90
7814;DHT22;3952;48.364;16.022;2024-03-22T10:27:54;17.30;99.90
7814;DHT22;3952;48.364;16.022;2024-03-22T10:30:22;17.50;99.90
7814;DHT22;3952;48.364;16.022;2024-03-22T10:32:49;17.50;99.90
7814;DHT22;3952;48.364;16.022;2024-03-22T10:35:16;17.60;99.90
7814;DHT22;3952;48.364;16.022;2024-03-22T10:37:44;17.70;99.90
7814;DHT22;3952;48.364;16.022;2024-03-22T10:40:11;17.90;99.90
7814;DHT22;3952;48.364;16.022;2024-03-22T10:42:42;18.00;99.90
7814;DHT22;3952;48.364;16.022;2024-03-22T10:45:09;18.00;99.90
7814;DHT22;3952;48.364;16.022;2024-03-22T10:47:38;18.00;99.90
7814;DHT22;3952;48.364;16.022;2024-03-22T10:50:05;18.10;99.90
7814;DHT22;3952;48.364;16.022;2024-03-22T10:52:37;18.10;99.90
7814;DHT22;3952;48.364;16.022;2024-03-22T10:55:07;18.00;99.90
7814;DHT22;3952;48.364;16.022;2024-03-22T10:57:36;18.10;99.90
7814;DHT22;3952;48.364;16.022;2024-03-22T11:00:09;18.30;99.90
7814;DHT22;3952;48.364;16.022;2024-03-22T11:02:37;18.40;99.90
7814;DHT22;3952;48.364;16.022;2024-03-22T11:05:04;18.50;99.90
7814;DHT22;3952;48.364;16.022;2024-03-22T11:07:32;18.60;99.90
7814;DHT22;3952;48.364;16.022;2024-03-22T11:10:00;18.70;99.90
7814;DHT22;3952;48.364;16.022;2024-03-22T11:12:29;18.70;99.90
7814;DHT22;3952;48.364;16.022;2024-03-22T11:14:59;18.80;99.90
7814;DHT22;3952;48.364;16.022;2024-03-22T11:17:28;18.80;99.90
7814;DHT22;3952;48.364;16.022;2024-03-22T11:19:54;18.90;99.90
7814;DHT22;3952;48.364;16.022;2024-03-22T11:22:21;18.90;99.90
7814;DHT22;3952;48.364;16.022;2024-03-22T11:24:48;19.10;99.90
7814;DHT22;3952;48.364;16.022;2024-03-22T11:27:15;19.10;99.90
7814;DHT22;3952;48.364;16.022;2024-03-22T11:29:42;19.30;99.90
7814;DHT22;3952;48.364;16.022;2024-03-22T11:32:09;19.30;99.90
7814;DHT22;3952;48.364;16.022;2024-03-22T11:34:37;19.40;99.90
7814;DHT22;3952;48.364;16.022;2024-03-22T11:37:07;19.60;99.90
7814;DHT22;3952;48.364;16.022;2024-03-22T11:39:36;19.70;99.90
7814;DHT22;3952;48.364;16.022;2024-03-22T11:42:04;19.80;99.90
7814;DHT22;3952;48.364;16.022;2024-03-22T11:44:32;20.00;99.90
7814;DHT22;3952;48.364;16.022;2024-03-22T11:46:59;20.10;99.90
7814;DHT22;3952;48.364;16.022;2024-03-22T11:49:26;20.00;99.90
7814;DHT22;3952;48.364;16.022;2024-03-22T11:51:56;20.00;99.90
7814;DHT22;3952;48.364;16.022;2024-03-22T11:54:22;20.10;99.90
7814;DHT22;3952;48.364;16.022;2024-03-22T11:56:50;20.10;99.90
7814;DHT22;3952;48.364;16.022;2024-03-22T11:59:19;20.10;99.90
7814;DHT22;3952;48.364;16.022;2024-03-22T12:01:47;20.20;99.90
7814;DHT22;3952;48.364;16.022;2024-03-22T12:04:13;20.10;99.90
7814;DHT22;3952;48.364;16.022;2024-03-22T12:06:42;19.40;99.90
7814;DHT22;3952;48.364;16.022;2024-03-22T12:09:09;20.30;99.90
7814;DHT22;3952;48.364;16.022;2024-03-22T12:11:38;20.40;99.90
7814;DHT22;3952;48.364;16.022;2024-03-22T12:14:05;20.50;99.90
7814;DHT22;3952;48.364;16.022;2024-03-22T12:16:32;20.40;99.50
7814;DHT22;3952;48.364;16.022;2024-03-22T12:18:58;20.20;98.80
7814;DHT22;3952;48.364;16.022;2024-03-22T12:21:26;19.80;97.80
7814;DHT22;3952;48.364;16.022;2024-03-22T12:23:52;19.60;99.40
7814;DHT22;3952;48.364;16.022;2024-03-22T12:26:21;19.40;99.90
7814;DHT22;3952;48.364;16.022;2024-03-22T12:28:47;19.30;99.90
7814;DHT22;3952;48.364;16.022;2024-03-22T12:31:17;19.20;99.90
7814;DHT22;3952;48.364;16.022;2024-03-22T12:33:44;19.10;99.90
7814;DHT22;3952;48.364;16.022;2024-03-22T12:36:11;19.10;99.90
7814;DHT22;3952;48.364;16.022;2024-03-22T12:38:40;19.10;99.90
7814;DHT22;3952;48.364;16.022;2024-03-22T12:41:07;19.10;99.30
7814;DHT22;3952;48.364;16.022;2024-03-22T12:43:35;19.10;99.80
7814;DHT22;3952;48.364;16.022;2024-03-22T12:46:03;19.00;99.90
7814;DHT22;3952;48.364;16.022;2024-03-22T12:48:29;19.00;99.00
7814;DHT22;3952;48.364;16.022;2024-03-22T12:50:56;19.00;99.90
7814;DHT22;3952;48.364;16.022;2024-03-22T12:53:23;19.00;99.20
7814;DHT22;3952;48.364;16.022;2024-03-22T12:55:50;19.10;99.20
7814;DHT22;3952;48.364;16.022;2024-03-22T12:58:16;19.10;98.80
7814;DHT22;3952;48.364;16.022;2024-03-22T13:00:45;19.20;98.80
7814;DHT22;3952;48.364;16.022;2024-03-22T13:03:11;19.30;99.20
7814;DHT22;3952;48.364;16.022;2024-03-22T13:05:40;19.50;99.50
7814;DHT22;3952;48.364;16.022;2024-03-22T13:08:07;19.40;98.50
7814;DHT22;3952;48.364;16.022;2024-03-22T13:10:34;19.10;98.90
7814;DHT22;3952;48.364;16.022;2024-03-22T13:13:00;18.90;99.50
7814;DHT22;3952;48.364;16.022;2024-03-22T13:15:28;18.80;99.90
7814;DHT22;3952;48.364;16.022;2024-03-22T13:17:55;18.70;99.90
7814;DHT22;3952;48.364;16.022;2024-03-22T13:20:23;18.80;99.40
7814;DHT22;3952;48.364;16.022;2024-03-22T13:22:49;18.80;99.90
7814;DHT22;3952;48.364;16.022;2024-03-22T13:25:16;18.80;99.90
7814;DHT22;3952;48.364;16.022;2024-03-22T13:27:43;18.70;99.50
7814;DHT22;3952;48.364;16.022;2024-03-22T13:30:10;18.60;99.10
7814;DHT22;3952;48.364;16.022;2024-03-22T13:32:38;18.50;99.90
7814;DHT22;3952;48.364;16.022;2024-03-22T13:35:07;18.50;99.90
7814;DHT22;3952;48.364;16.022;2024-03-22T13:37:34;18.40;99.70
7814;DHT22;3952;48.364;16.022;2024-03-22T13:40:01;18.40;99.90
7814;DHT22;3952;48.364;16.022;2024-03-22T13:42:28;18.40;99.90
7814;DHT22;3952;48.364;16.022;2024-03-22T13:44:56;18.30;99.60
7814;DHT22;3952;48.364;16.022;2024-03-22T13:47:22;18.30;99.70
7814;DHT22;3952;48.364;16.022;2024-03-22T13:49:50;18.40;99.90
7814;DHT22;3952;48.364;16.022;2024-03-22T13:52:17;18.50;99.30
7814;DHT22;3952;48.364;16.022;2024-03-22T13:54:46;18.60;99.20
7814;DHT22;3952;48.364;16.022;2024-03-22T13:57:12;18.70;99.70
7814;DHT22;3952;48.364;16.022;2024-03-22T13:59:40;18.80;99.00
7814;DHT22;3952;48.364;16.022;2024-03-22T14:02:06;18.80;99.70
7814;DHT22;3952;48.364;16.022;2024-03-22T14:04:35;18.80;99.90
7814;DHT22;3952;48.364;16.022;2024-03-22T14:07:01;18.80;99.00
7814;DHT22;3952;48.364;16.022;2024-03-22T14:09:32;18.60;98.80
7814;DHT22;3952;48.364;16.022;2024-03-22T14:11:58;18.50;99.80
7814;DHT22;3952;48.364;16.022;2024-03-22T14:14:25;18.40;99.10
7814;DHT22;3952;48.364;16.022;2024-03-22T14:16:52;18.30;98.90
7814;DHT22;3952;48.364;16.022;2024-03-22T14:19:19;18.30;99.00
7814;DHT22;3952;48.364;16.022;2024-03-22T14:21:46;18.40;98.50
7814;DHT22;3952;48.364;16.022;2024-03-22T14:24:13;18.40;98.90
7814;DHT22;3952;48.364;16.022;2024-03-22T14:26:41;18.30;98.60
7814;DHT22;3952;48.364;16.022;2024-03-22T14:29:09;18.20;99.20
7814;DHT22;3952;48.364;16.022;2024-03-22T14:31:35;18.10;99.50
7814;DHT22;3952;48.364;16.022;2024-03-22T14:34:02;18.10;99.60
7814;DHT22;3952;48.364;16.022;2024-03-22T14:36:29;18.10;99.10
7814;DHT22;3952;48.364;16.022;2024-03-22T14:38:56;18.10;99.10
7814;DHT22;3952;48.364;16.022;2024-03-22T14:41:22;18.10;98.80
7814;DHT22;3952;48.364;16.022;2024-03-22T14:43:51;18.10;99.10
7814;DHT22;3952;48.364;16.022;2024-03-22T14:46:19;18.10;98.80
7814;DHT22;3952;48.364;16.022;2024-03-22T14:48:50;18.10;98.80
7814;DHT22;3952;48.364;16.022;2024-03-22T14:51:18;18.10;99.50
7814;DHT22;3952;48.364;16.022;2024-03-22T14:53:44;18.00;99.20
7814;DHT22;3952;48.364;16.022;2024-03-22T14:56:12;18.00;99.90
7814;DHT22;3952;48.364;16.022;2024-03-22T14:58:39;18.00;99.60
7814;DHT22;3952;48.364;16.022;2024-03-22T15:01:10;18.00;99.00
7814;DHT22;3952;48.364;16.022;2024-03-22T15:03:36;18.00;99.80
7814;DHT22;3952;48.364;16.022;2024-03-22T15:06:04;18.00;99.50
7814;DHT22;3952;48.364;16.022;2024-03-22T15:08:30;18.00;99.30
7814;DHT22;3952;48.364;16.022;2024-03-22T15:10:58;18.00;99.00
7814;DHT22;3952;48.364;16.022;2024-03-22T15:13:24;18.10;98.50
7814;DHT22;3952;48.364;16.022;2024-03-22T15:15:56;18.10;98.00
7814;DHT22;3952;48.364;16.022;2024-03-22T15:18:24;18.20;98.50
7814;DHT22;3952;48.364;16.022;2024-03-22T15:20:52;18.30;97.70
7814;DHT22;3952;48.364;16.022;2024-03-22T15:23:19;18.30;98.40
7814;DHT22;3952;48.364;16.022;2024-03-22T15:25:47;18.30;99.10
7814;DHT22;3952;48.364;16.022;2024-03-22T15:28:13;18.20;97.20
7814;DHT22;3952;48.364;16.022;2024-03-22T15:30:40;18.20;97.00
7814;DHT22;3952;48.364;16.022;2024-03-22T15:33:08;18.20;96.20
7814;DHT22;3952;48.364;16.022;2024-03-22T15:35:37;18.10;95.60
7814;DHT22;3952;48.364;16.022;2024-03-22T15:38:04;18.00;95.80
7814;DHT22;3952;48.364;16.022;2024-03-22T15:40:31;18.00;95.20
7814;DHT22;3952;48.364;16.022;2024-03-22T15:42:58;17.90;95.60
7814;DHT22;3952;48.364;16.022;2024-03-22T15:45:25;17.90;95.80